sensor_id;sensor_type;location;lat;lon;timestamp;pressure;altitude;pressure_sealevel;temperature;humidity
3260;BME280;22469;48.150;14.004;2022-12-07T00:01:36;97951.63;;;7.50;73.82
3260;BME280;22469;48.150;14.004;2022-12-07T00:04:10;97951.75;;;7.44;73.67
3260;BME280;22469;48.150;14.004;2022-12-07T00:06:44;97955.00;;;7.50;73.67
3260;BME280;22469;48.150;14.004;2022-12-07T00:09:15;97963.63;;;7.45;73.90
3260;BME280;22469;48.150;14.004;2022-12-07T00:11:43;97953.91;;;7.22;74.20
3260;BME280;22469;48.150;14.004;2022-12-07T00:14:16;97955.34;;;7.35;74.33
3260;BME280;22469;48.150;14.004;2022-12-07T00:16:44;97953.34;;;7.48;73.81
3260;BME280;22469;48.150;14.004;2022-12-07T00:19:13;97948.97;;;7.54;73.52
3260;BME280;22469;48.150;14.004;2022-12-07T00:21:41;97940.88;;;7.34;74.40
3260;BME280;22469;48.150;14.004;2022-12-07T00:24:10;97944.28;;;7.34;74.53
3260;BME280;22469;48.150;14.004;2022-12-07T00:26:39;97945.44;;;7.20;75.25
3260;BME280;22469;48.150;14.004;2022-12-07T00:29:28;97945.13;;;7.35;74.56
3260;BME280;22469;48.150;14.004;2022-12-07T00:31:55;97933.38;;;7.26;74.79
3260;BME280;22469;48.150;14.004;2022-12-07T00:34:22;97946.38;;;7.14;75.42
3260;BME280;22469;48.150;14.004;2022-12-07T00:36:50;97941.97;;;7.22;75.22
3260;BME280;22469;48.150;14.004;2022-12-07T00:39:17;97942.03;;;7.19;75.58
3260;BME280;22469;48.150;14.004;2022-12-07T00:41:44;97937.53;;;7.32;74.62
3260;BME280;22469;48.150;14.004;2022-12-07T00:44:11;97942.72;;;7.27;75.23
3260;BME280;22469;48.150;14.004;2022-12-07T00:46:38;97931.69;;;7.27;74.46
3260;BME280;22469;48.150;14.004;2022-12-07T00:49:05;97935.72;;;7.37;74.18
3260;BME280;22469;48.150;14.004;2022-12-07T00:51:32;97938.22;;;7.40;74.53
3260;BME280;22469;48.150;14.004;2022-12-07T00:53:59;97933.66;;;7.56;73.72
3260;BME280;22469;48.150;14.004;2022-12-07T00:56:28;97926.56;;;7.28;73.86
3260;BME280;22469;48.150;14.004;2022-12-07T00:59:00;97940.00;;;7.36;74.08
3260;BME280;22469;48.150;14.004;2022-12-07T01:01:30;97940.53;;;7.51;73.84
3260;BME280;22469;48.150;14.004;2022-12-07T01:04:00;97935.63;;;7.42;74.00
3260;BME280;22469;48.150;14.004;2022-12-07T01:06:30;97935.56;;;7.45;73.58
3260;BME280;22469;48.150;14.004;2022-12-07T01:08:57;97937.03;;;7.55;73.57
3260;BME280;22469;48.150;14.004;2022-12-07T01:11:27;97945.41;;;7.62;73.19
3260;BME280;22469;48.150;14.004;2022-12-07T01:13:57;97938.75;;;7.56;73.38
3260;BME280;22469;48.150;14.004;2022-12-07T01:16:27;97945.81;;;7.43;73.86
3260;BME280;22469;48.150;14.004;2022-12-07T01:18:56;97939.75;;;7.49;73.72
3260;BME280;22469;48.150;14.004;2022-12-07T01:21:28;97940.25;;;7.65;73.13
3260;BME280;22469;48.150;14.004;2022-12-07T01:24:03;97942.81;;;7.65;72.82
3260;BME280;22469;48.150;14.004;2022-12-07T01:26:31;97947.19;;;7.58;73.18
3260;BME280;22469;48.150;14.004;2022-12-07T01:28:58;97949.63;;;7.64;73.18
3260;BME280;22469;48.150;14.004;2022-12-07T01:31:28;97939.34;;;7.67;72.54
3260;BME280;22469;48.150;14.004;2022-12-07T01:33:57;97942.03;;;7.61;72.71
3260;BME280;22469;48.150;14.004;2022-12-07T01:36:28;97946.53;;;7.50;73.64
3260;BME280;22469;48.150;14.004;2022-12-07T01:39:04;97941.25;;;7.57;73.76
3260;BME280;22469;48.150;14.004;2022-12-07T01:41:35;97938.75;;;7.56;73.35
3260;BME280;22469;48.150;14.004;2022-12-07T01:46:58;97930.09;;;7.62;73.21
3260;BME280;22469;48.150;14.004;2022-12-07T01:49:44;97933.94;;;7.41;73.99
3260;BME280;22469;48.150;14.004;2022-12-07T01:52:17;97932.69;;;7.60;73.66
3260;BME280;22469;48.150;14.004;2022-12-07T01:54:46;97933.50;;;7.62;73.58
3260;BME280;22469;48.150;14.004;2022-12-07T01:57:16;97928.50;;;7.57;73.54
3260;BME280;22469;48.150;14.004;2022-12-07T01:59:45;97921.41;;;7.70;73.46
3260;BME280;22469;48.150;14.004;2022-12-07T02:02:20;97914.41;;;7.78;72.87
3260;BME280;22469;48.150;14.004;2022-12-07T02:04:53;97919.94;;;7.60;73.64
3260;BME280;22469;48.150;14.004;2022-12-07T02:07:21;97914.84;;;7.60;73.54
3260;BME280;22469;48.150;14.004;2022-12-07T02:09:49;97914.06;;;7.55;73.70
3260;BME280;22469;48.150;14.004;2022-12-07T02:12:16;97922.44;;;7.63;73.53
3260;BME280;22469;48.150;14.004;2022-12-07T02:14:44;97914.00;;;7.59;73.97
3260;BME280;22469;48.150;14.004;2022-12-07T02:17:38;97915.50;;;7.68;73.88
3260;BME280;22469;48.150;14.004;2022-12-07T02:20:51;97909.63;;;7.24;75.41
3260;BME280;22469;48.150;14.004;2022-12-07T02:30:48;97915.53;;;7.26;75.86
3260;BME280;22469;48.150;14.004;2022-12-07T02:33:25;97912.00;;;7.33;75.65
3260;BME280;22469;48.150;14.004;2022-12-07T02:36:12;97913.66;;;7.34;75.35
3260;BME280;22469;48.150;14.004;2022-12-07T02:39:00;97917.19;;;7.29;75.37
3260;BME280;22469;48.150;14.004;2022-12-07T02:41:36;97911.44;;;7.19;75.49
3260;BME280;22469;48.150;14.004;2022-12-07T02:44:15;97908.63;;;7.31;74.95
3260;BME280;22469;48.150;14.004;2022-12-07T02:46:50;97905.03;;;7.40;74.38
3260;BME280;22469;48.150;14.004;2022-12-07T02:49:25;97903.94;;;7.11;75.64
3260;BME280;22469;48.150;14.004;2022-12-07T02:51:54;97904.06;;;7.04;75.84
3260;BME280;22469;48.150;14.004;2022-12-07T02:54:22;97909.22;;;7.02;76.58
3260;BME280;22469;48.150;14.004;2022-12-07T03:00:15;97905.56;;;7.16;76.22
3260;BME280;22469;48.150;14.004;2022-12-07T03:03:00;97905.94;;;7.38;75.19
3260;BME280;22469;48.150;14.004;2022-12-07T03:12:01;97899.03;;;7.43;74.75
3260;BME280;22469;48.150;14.004;2022-12-07T03:14:41;97898.00;;;7.51;73.93
3260;BME280;22469;48.150;14.004;2022-12-07T03:17:21;97907.41;;;7.49;74.30
3260;BME280;22469;48.150;14.004;2022-12-07T03:19:55;97899.91;;;7.42;74.36
3260;BME280;22469;48.150;14.004;2022-12-07T03:22:30;97904.72;;;7.55;73.89
3260;BME280;22469;48.150;14.004;2022-12-07T03:24:59;97901.38;;;7.53;73.82
3260;BME280;22469;48.150;14.004;2022-12-07T03:27:37;97905.59;;;7.54;73.82
3260;BME280;22469;48.150;14.004;2022-12-07T03:30:22;97897.75;;;7.64;73.38
3260;BME280;22469;48.150;14.004;2022-12-07T03:33:08;97904.31;;;7.74;73.27
3260;BME280;22469;48.150;14.004;2022-12-07T03:35:45;97893.16;;;7.78;72.89
3260;BME280;22469;48.150;14.004;2022-12-07T03:40:44;97904.75;;;7.54;71.80
3260;BME280;22469;48.150;14.004;2022-12-07T03:43:18;97901.63;;;7.41;72.12
3260;BME280;22469;48.150;14.004;2022-12-07T03:57:38;97916.41;;;7.25;72.61
3260;BME280;22469;48.150;14.004;2022-12-07T04:00:09;97910.66;;;7.16;72.89
3260;BME280;22469;48.150;14.004;2022-12-07T04:02:37;97913.53;;;6.99;73.73
3260;BME280;22469;48.150;14.004;2022-12-07T04:05:05;97904.78;;;7.12;73.28
3260;BME280;22469;48.150;14.004;2022-12-07T04:07:32;97907.50;;;7.03;73.19
3260;BME280;22469;48.150;14.004;2022-12-07T04:09:59;97908.53;;;6.93;73.74
3260;BME280;22469;48.150;14.004;2022-12-07T04:12:27;97902.56;;;6.95;73.46
3260;BME280;22469;48.150;14.004;2022-12-07T04:14:54;97903.16;;;7.08;73.23
3260;BME280;22469;48.150;14.004;2022-12-07T04:17:21;97909.00;;;7.13;72.76
3260;BME280;22469;48.150;14.004;2022-12-07T04:19:48;97920.28;;;7.01;73.57
3260;BME280;22469;48.150;14.004;2022-12-07T04:22:15;97910.19;;;6.95;73.84
3260;BME280;22469;48.150;14.004;2022-12-07T04:24:42;97909.25;;;6.99;73.68
3260;BME280;22469;48.150;14.004;2022-12-07T04:27:09;97907.31;;;7.12;73.13
3260;BME280;22469;48.150;14.004;2022-12-07T04:29:36;97910.16;;;6.97;73.83
3260;BME280;22469;48.150;14.004;2022-12-07T04:32:03;97902.34;;;7.06;73.74
3260;BME280;22469;48.150;14.004;2022-12-07T04:34:31;97903.16;;;7.08;73.87
3260;BME280;22469;48.150;14.004;2022-12-07T04:36:58;97911.44;;;7.19;73.57
3260;BME280;22469;48.150;14.004;2022-12-07T04:39:28;97913.97;;;7.19;73.29
3260;BME280;22469;48.150;14.004;2022-12-07T04:41:57;97903.84;;;7.16;73.31
3260;BME280;22469;48.150;14.004;2022-12-07T04:44:26;97907.31;;;7.12;73.62
3260;BME280;22469;48.150;14.004;2022-12-07T04:46:54;97910.66;;;7.14;73.30
3260;BME280;22469;48.150;14.004;2022-12-07T04:49:22;97897.06;;;7.13;73.43
3260;BME280;22469;48.150;14.004;2022-12-07T04:51:51;97907.56;;;7.00;74.28
3260;BME280;22469;48.150;14.004;2022-12-07T04:54:19;97910.41;;;6.84;74.29
3260;BME280;22469;48.150;14.004;2022-12-07T04:56:46;97903.50;;;6.89;74.27
3260;BME280;22469;48.150;14.004;2022-12-07T04:59:15;97911.00;;;6.97;73.97
3260;BME280;22469;48.150;14.004;2022-12-07T05:01:42;97911.53;;;7.15;73.45
3260;BME280;22469;48.150;14.004;2022-12-07T05:04:10;97900.63;;;7.06;73.41
3260;BME280;22469;48.150;14.004;2022-12-07T05:06:37;97903.84;;;7.16;73.09
3260;BME280;22469;48.150;14.004;2022-12-07T05:09:04;97908.09;;;7.16;73.14
3260;BME280;22469;48.150;14.004;2022-12-07T05:11:31;97897.19;;;7.09;73.30
3260;BME280;22469;48.150;14.004;2022-12-07T05:14:20;97896.34;;;7.08;73.60
3260;BME280;22469;48.150;14.004;2022-12-07T05:16:49;97891.81;;;7.21;73.25
3260;BME280;22469;48.150;14.004;2022-12-07T05:19:18;97904.38;;;7.30;72.96
3260;BME280;22469;48.150;14.004;2022-12-07T05:21:46;97899.22;;;7.33;72.73
3260;BME280;22469;48.150;14.004;2022-12-07T05:24:15;97895.84;;;7.31;72.49
3260;BME280;22469;48.150;14.004;2022-12-07T05:26:44;97901.81;;;7.32;72.29
3260;BME280;22469;48.150;14.004;2022-12-07T05:29:14;97899.13;;;7.38;72.15
3260;BME280;22469;48.150;14.004;2022-12-07T05:31:43;97895.13;;;7.26;71.54
3260;BME280;22469;48.150;14.004;2022-12-07T05:34:12;97889.09;;;7.30;71.98
3260;BME280;22469;48.150;14.004;2022-12-07T05:36:39;97891.47;;;7.38;71.56
3260;BME280;22469;48.150;14.004;2022-12-07T05:39:06;97889.78;;;7.39;71.52
3260;BME280;22469;48.150;14.004;2022-12-07T05:41:34;97900.00;;;7.39;71.20
3260;BME280;22469;48.150;14.004;2022-12-07T05:44:19;97905.88;;;7.41;71.00
3260;BME280;22469;48.150;14.004;2022-12-07T05:46:46;97912.09;;;7.27;70.49
3260;BME280;22469;48.150;14.004;2022-12-07T05:49:13;97904.06;;;7.05;70.08
3260;BME280;22469;48.150;14.004;2022-12-07T05:51:40;97909.56;;;6.84;69.74
3260;BME280;22469;48.150;14.004;2022-12-07T05:54:07;97906.72;;;6.99;69.90
3260;BME280;22469;48.150;14.004;2022-12-07T05:56:34;97914.78;;;7.21;69.28
3260;BME280;22469;48.150;14.004;2022-12-07T05:59:01;97906.03;;;6.91;69.34
3260;BME280;22469;48.150;14.004;2022-12-07T06:01:46;97916.69;;;7.11;69.33
3260;BME280;22469;48.150;14.004;2022-12-07T06:04:13;97913.53;;;6.99;69.35
3260;BME280;22469;48.150;14.004;2022-12-07T06:06:40;97903.13;;;7.09;68.85
3260;BME280;22469;48.150;14.004;2022-12-07T06:09:07;97914.53;;;6.92;68.67
3260;BME280;22469;48.150;14.004;2022-12-07T06:11:34;97913.81;;;6.83;68.13
3260;BME280;22469;48.150;14.004;2022-12-07T06:14:20;97908.59;;;6.89;68.07
3260;BME280;22469;48.150;14.004;2022-12-07T06:16:47;97914.78;;;6.78;67.25
3260;BME280;22469;48.150;14.004;2022-12-07T06:19:14;97923.09;;;6.86;67.71
3260;BME280;22469;48.150;14.004;2022-12-07T06:21:41;97921.84;;;6.62;66.06
3260;BME280;22469;48.150;14.004;2022-12-07T06:24:12;97932.00;;;6.65;66.57
3260;BME280;22469;48.150;14.004;2022-12-07T06:26:41;97926.94;;;6.62;65.51
3260;BME280;22469;48.150;14.004;2022-12-07T06:29:09;97932.53;;;6.82;65.58
3260;BME280;22469;48.150;14.004;2022-12-07T06:31:37;97932.03;;;6.62;65.24
3260;BME280;22469;48.150;14.004;2022-12-07T06:34:08;97927.38;;;6.85;64.56
3260;BME280;22469;48.150;14.004;2022-12-07T06:36:37;97929.88;;;6.87;64.16
3260;BME280;22469;48.150;14.004;2022-12-07T06:39:05;97932.75;;;6.70;63.56
3260;BME280;22469;48.150;14.004;2022-12-07T06:41:38;97929.38;;;6.68;63.76
3260;BME280;22469;48.150;14.004;2022-12-07T06:44:06;97938.75;;;6.66;63.38
3260;BME280;22469;48.150;14.004;2022-12-07T06:46:34;97937.13;;;6.62;64.33
3260;BME280;22469;48.150;14.004;2022-12-07T06:49:03;97935.75;;;6.92;63.97
3260;BME280;22469;48.150;14.004;2022-12-07T06:51:32;97942.34;;;7.02;64.04
3260;BME280;22469;48.150;14.004;2022-12-07T06:54:00;97940.41;;;6.70;63.23
3260;BME280;22469;48.150;14.004;2022-12-07T06:56:27;97942.41;;;6.51;64.40
3260;BME280;22469;48.150;14.004;2022-12-07T06:58:55;97940.41;;;6.69;64.42
3260;BME280;22469;48.150;14.004;2022-12-07T07:01:22;97953.41;;;6.55;64.95
3260;BME280;22469;48.150;14.004;2022-12-07T07:03:49;97947.81;;;6.82;64.80
3260;BME280;22469;48.150;14.004;2022-12-07T07:06:16;97951.50;;;6.68;65.34
3260;BME280;22469;48.150;14.004;2022-12-07T07:08:43;97942.88;;;6.73;64.82
3260;BME280;22469;48.150;14.004;2022-12-07T07:11:10;97945.84;;;6.50;64.93
3260;BME280;22469;48.150;14.004;2022-12-07T07:13:38;97960.84;;;6.67;64.82
3260;BME280;22469;48.150;14.004;2022-12-07T07:16:06;97957.28;;;6.76;64.37
3260;BME280;22469;48.150;14.004;2022-12-07T07:18:33;97960.34;;;6.95;63.91
3260;BME280;22469;48.150;14.004;2022-12-07T07:21:01;97956.00;;;7.00;63.20
3260;BME280;22469;48.150;14.004;2022-12-07T07:23:28;97956.81;;;7.02;62.87
3260;BME280;22469;48.150;14.004;2022-12-07T07:25:56;97956.16;;;6.92;62.57
3260;BME280;22469;48.150;14.004;2022-12-07T07:28:23;97950.78;;;7.06;63.00
3260;BME280;22469;48.150;14.004;2022-12-07T07:30:50;97962.56;;;7.13;61.99
3260;BME280;22469;48.150;14.004;2022-12-07T07:33:18;97964.38;;;7.06;62.07
3260;BME280;22469;48.150;14.004;2022-12-07T07:35:45;97963.75;;;6.94;62.45
3260;BME280;22469;48.150;14.004;2022-12-07T07:38:12;97967.28;;;6.86;62.08
3260;BME280;22469;48.150;14.004;2022-12-07T07:40:39;97976.34;;;7.03;61.59
3260;BME280;22469;48.150;14.004;2022-12-07T07:43:06;97974.47;;;7.12;61.97
3260;BME280;22469;48.150;14.004;2022-12-07T07:45:33;97980.31;;;7.18;61.86
3260;BME280;22469;48.150;14.004;2022-12-07T07:48:00;97980.97;;;7.29;61.15
3260;BME280;22469;48.150;14.004;2022-12-07T07:50:26;97982.59;;;7.33;61.43
3260;BME280;22469;48.150;14.004;2022-12-07T07:52:55;97993.84;;;7.23;60.65
3260;BME280;22469;48.150;14.004;2022-12-07T07:55:23;97982.91;;;7.16;61.30
3260;BME280;22469;48.150;14.004;2022-12-07T07:57:51;97988.63;;;7.29;60.10
3260;BME280;22469;48.150;14.004;2022-12-07T08:00:21;97980.75;;;7.40;60.76
3260;BME280;22469;48.150;14.004;2022-12-07T08:02:48;97982.59;;;7.31;60.23
3260;BME280;22469;48.150;14.004;2022-12-07T08:05:16;97988.00;;;7.16;60.24
3260;BME280;22469;48.150;14.004;2022-12-07T08:07:43;97983.47;;;7.30;60.98
3260;BME280;22469;48.150;14.004;2022-12-07T08:10:12;97978.16;;;7.43;60.55
3260;BME280;22469;48.150;14.004;2022-12-07T08:12:41;97985.75;;;7.46;60.56
3260;BME280;22469;48.150;14.004;2022-12-07T08:15:28;97989.97;;;7.47;60.55
3260;BME280;22469;48.150;14.004;2022-12-07T08:17:58;97990.25;;;7.33;58.90
3260;BME280;22469;48.150;14.004;2022-12-07T08:20:25;97986.59;;;7.45;59.56
3260;BME280;22469;48.150;14.004;2022-12-07T08:22:53;97983.13;;;7.49;59.11
3260;BME280;22469;48.150;14.004;2022-12-07T08:25:20;97986.19;;;7.65;59.42
3260;BME280;22469;48.150;14.004;2022-12-07T08:27:51;97978.81;;;7.52;58.70
3260;BME280;22469;48.150;14.004;2022-12-07T08:30:19;97987.25;;;7.54;58.90
3260;BME280;22469;48.150;14.004;2022-12-07T08:32:47;97984.88;;;7.47;59.02
3260;BME280;22469;48.150;14.004;2022-12-07T08:35:15;97985.53;;;7.56;59.37
3260;BME280;22469;48.150;14.004;2022-12-07T08:37:42;97980.19;;;7.67;59.29
3260;BME280;22469;48.150;14.004;2022-12-07T08:40:11;97983.47;;;7.74;59.44
3260;BME280;22469;48.150;14.004;2022-12-07T08:42:43;97986.53;;;7.49;59.31
3260;BME280;22469;48.150;14.004;2022-12-07T08:45:16;97988.81;;;7.62;59.75
3260;BME280;22469;48.150;14.004;2022-12-07T08:48:18;97984.91;;;7.86;60.66
3260;BME280;22469;48.150;14.004;2022-12-07T08:50:48;97979.06;;;7.80;60.68
3260;BME280;22469;48.150;14.004;2022-12-07T08:53:15;97978.06;;;7.88;61.94
3260;BME280;22469;48.150;14.004;2022-12-07T08:55:44;97988.09;;;7.97;62.36
3260;BME280;22469;48.150;14.004;2022-12-07T08:58:12;97985.06;;;7.79;62.06
3260;BME280;22469;48.150;14.004;2022-12-07T09:00:39;98003.22;;;7.64;63.14
3260;BME280;22469;48.150;14.004;2022-12-07T09:03:07;97997.47;;;7.54;63.03
3260;BME280;22469;48.150;14.004;2022-12-07T09:05:34;98004.31;;;7.52;63.10
3260;BME280;22469;48.150;14.004;2022-12-07T09:08:01;97998.50;;;7.44;63.48
3260;BME280;22469;48.150;14.004;2022-12-07T09:10:29;98006.28;;;7.40;64.36
3260;BME280;22469;48.150;14.004;2022-12-07T09:12:56;98004.59;;;7.37;64.57
3260;BME280;22469;48.150;14.004;2022-12-07T09:15:28;98010.94;;;7.63;63.90
3260;BME280;22469;48.150;14.004;2022-12-07T09:17:55;98011.75;;;7.63;63.90
3260;BME280;22469;48.150;14.004;2022-12-07T09:20:23;98008.94;;;7.75;63.25
3260;BME280;22469;48.150;14.004;2022-12-07T09:22:53;98012.13;;;7.87;63.37
3260;BME280;22469;48.150;14.004;2022-12-07T09:25:21;98008.09;;;7.75;63.14
3260;BME280;22469;48.150;14.004;2022-12-07T09:27:48;98017.88;;;7.54;63.71
3260;BME280;22469;48.150;14.004;2022-12-07T09:30:22;98011.88;;;7.57;63.93
3260;BME280;22469;48.150;14.004;2022-12-07T09:32:49;98015.44;;;7.48;64.78
3260;BME280;22469;48.150;14.004;2022-12-07T09:35:16;98012.16;;;7.42;64.81
3260;BME280;22469;48.150;14.004;2022-12-07T09:37:43;98009.38;;;7.09;65.15
3260;BME280;22469;48.150;14.004;2022-12-07T09:40:10;98002.91;;;7.38;64.77
3260;BME280;22469;48.150;14.004;2022-12-07T09:42:39;98004.97;;;7.62;63.68
3260;BME280;22469;48.150;14.004;2022-12-07T09:45:21;97998.28;;;7.56;62.59
3260;BME280;22469;48.150;14.004;2022-12-07T09:47:51;98005.44;;;7.39;63.23
3260;BME280;22469;48.150;14.004;2022-12-07T09:50:21;97994.50;;;7.32;63.29
3260;BME280;22469;48.150;14.004;2022-12-07T09:52:52;97993.34;;;7.47;62.92
3260;BME280;22469;48.150;14.004;2022-12-07T09:55:27;97999.00;;;7.62;62.56
3260;BME280;22469;48.150;14.004;2022-12-07T09:57:55;97996.72;;;7.49;61.74
3260;BME280;22469;48.150;14.004;2022-12-07T10:00:24;97993.06;;;7.63;62.74
3260;BME280;22469;48.150;14.004;2022-12-07T10:03:01;97986.00;;;7.74;61.99
3260;BME280;22469;48.150;14.004;2022-12-07T10:05:38;97975.16;;;7.64;62.26
3260;BME280;22469;48.150;14.004;2022-12-07T10:08:11;97973.09;;;7.40;61.75
3260;BME280;22469;48.150;14.004;2022-12-07T10:10:39;97972.75;;;7.56;61.94
3260;BME280;22469;48.150;14.004;2022-12-07T10:13:12;97966.13;;;7.88;60.99
3260;BME280;22469;48.150;14.004;2022-12-07T10:29:20;97952.78;;;7.75;62.17
3260;BME280;22469;48.150;14.004;2022-12-07T10:31:57;97955.97;;;7.46;62.59
3260;BME280;22469;48.150;14.004;2022-12-07T10:34:30;97960.91;;;7.54;63.26
3260;BME280;22469;48.150;14.004;2022-12-07T10:39:51;97958.03;;;7.69;62.00
3260;BME280;22469;48.150;14.004;2022-12-07T10:42:38;97950.81;;;7.88;62.35
3260;BME280;22469;48.150;14.004;2022-12-07T10:45:18;97954.78;;;7.61;62.35
3260;BME280;22469;48.150;14.004;2022-12-07T10:48:08;97960.41;;;7.36;63.55
3260;BME280;22469;48.150;14.004;2022-12-07T10:57:33;97955.72;;;7.97;62.23
3260;BME280;22469;48.150;14.004;2022-12-07T11:00:19;97957.13;;;8.09;62.14
3260;BME280;22469;48.150;14.004;2022-12-07T11:02:59;97962.81;;;8.22;61.95
3260;BME280;22469;48.150;14.004;2022-12-07T11:12:20;97949.91;;;8.28;61.97
3260;BME280;22469;48.150;14.004;2022-12-07T11:21:09;97934.66;;;7.49;58.35
3260;BME280;22469;48.150;14.004;2022-12-07T11:23:49;97933.09;;;7.80;58.65
3260;BME280;22469;48.150;14.004;2022-12-07T11:35:54;97916.66;;;7.92;56.16
3260;BME280;22469;48.150;14.004;2022-12-07T11:41:24;97916.56;;;7.58;55.92
3260;BME280;22469;48.150;14.004;2022-12-07T11:44:22;97920.34;;;7.79;55.32
3260;BME280;22469;48.150;14.004;2022-12-07T11:50:52;97912.13;;;8.05;54.56
3260;BME280;22469;48.150;14.004;2022-12-07T11:56:02;97911.34;;;8.01;56.49
3260;BME280;22469;48.150;14.004;2022-12-07T12:06:42;97901.75;;;8.11;56.93
3260;BME280;22469;48.150;14.004;2022-12-07T12:15:47;97897.00;;;8.31;57.17
3260;BME280;22469;48.150;14.004;2022-12-07T12:21:15;97870.13;;;8.51;55.88
3260;BME280;22469;48.150;14.004;2022-12-07T12:23:55;97882.75;;;8.57;56.14
3260;BME280;22469;48.150;14.004;2022-12-07T12:26:30;97873.78;;;8.42;56.02
3260;BME280;22469;48.150;14.004;2022-12-07T12:29:05;97869.66;;;8.35;54.87
3260;BME280;22469;48.150;14.004;2022-12-07T12:31:41;97867.72;;;8.11;56.03
3260;BME280;22469;48.150;14.004;2022-12-07T12:34:32;97875.03;;;8.24;55.19
3260;BME280;22469;48.150;14.004;2022-12-07T12:42:51;97884.66;;;7.77;55.89
3260;BME280;22469;48.150;14.004;2022-12-07T12:45:28;97881.78;;;7.91;56.15
3260;BME280;22469;48.150;14.004;2022-12-07T12:48:03;97873.06;;;8.00;55.60
3260;BME280;22469;48.150;14.004;2022-12-07T12:50:37;97877.66;;;7.86;55.24
3260;BME280;22469;48.150;14.004;2022-12-07T12:53:22;97879.34;;;7.87;54.93
3260;BME280;22469;48.150;14.004;2022-12-07T12:58:39;97873.19;;;7.95;54.72
3260;BME280;22469;48.150;14.004;2022-12-07T13:04:03;97872.28;;;7.98;54.82
3260;BME280;22469;48.150;14.004;2022-12-07T13:06:43;97875.22;;;8.17;54.41
3260;BME280;22469;48.150;14.004;2022-12-07T13:09:28;97871.06;;;8.13;53.38
3260;BME280;22469;48.150;14.004;2022-12-07T13:12:02;97869.53;;;8.05;53.98
3260;BME280;22469;48.150;14.004;2022-12-07T13:14:41;97863.16;;;7.88;54.50
3260;BME280;22469;48.150;14.004;2022-12-07T13:17:10;97869.88;;;8.26;54.94
3260;BME280;22469;48.150;14.004;2022-12-07T13:27:41;97861.22;;;8.31;54.27
3260;BME280;22469;48.150;14.004;2022-12-07T13:30:16;97867.47;;;8.20;55.01
3260;BME280;22469;48.150;14.004;2022-12-07T13:32:56;97861.16;;;8.35;55.05
3260;BME280;22469;48.150;14.004;2022-12-07T13:38:02;97857.94;;;8.26;54.84
3260;BME280;22469;48.150;14.004;2022-12-07T13:40:32;97864.47;;;8.40;55.38
3260;BME280;22469;48.150;14.004;2022-12-07T13:43:04;97855.81;;;8.45;54.66
3260;BME280;22469;48.150;14.004;2022-12-07T13:45:33;97852.59;;;8.36;54.77
3260;BME280;22469;48.150;14.004;2022-12-07T13:48:24;97856.34;;;8.22;55.09
3260;BME280;22469;48.150;14.004;2022-12-07T13:51:00;97857.91;;;8.28;54.95
3260;BME280;22469;48.150;14.004;2022-12-07T13:53:29;97853.78;;;8.22;55.48
3260;BME280;22469;48.150;14.004;2022-12-07T13:55:59;97851.00;;;8.31;55.24
3260;BME280;22469;48.150;14.004;2022-12-07T13:58:30;97839.78;;;8.03;56.06
3260;BME280;22469;48.150;14.004;2022-12-07T14:00:58;97842.13;;;8.12;56.22
3260;BME280;22469;48.150;14.004;2022-12-07T14:03:34;97835.28;;;8.13;56.07
3260;BME280;22469;48.150;14.004;2022-12-07T14:08:44;97855.63;;;8.17;55.72
3260;BME280;22469;48.150;14.004;2022-12-07T14:11:18;97851.88;;;8.30;55.71
3260;BME280;22469;48.150;14.004;2022-12-07T14:14:00;97853.09;;;8.17;56.33
3260;BME280;22469;48.150;14.004;2022-12-07T14:16:31;97855.00;;;7.72;57.31
3260;BME280;22469;48.150;14.004;2022-12-07T14:19:05;97850.75;;;8.06;57.14
3260;BME280;22469;48.150;14.004;2022-12-07T14:27:53;97855.78;;;8.11;57.08
3260;BME280;22469;48.150;14.004;2022-12-07T14:30:28;97848.88;;;8.15;57.22
3260;BME280;22469;48.150;14.004;2022-12-07T14:32:59;97852.13;;;8.21;56.48
3260;BME280;22469;48.150;14.004;2022-12-07T14:35:37;97862.16;;;8.29;56.44
3260;BME280;22469;48.150;14.004;2022-12-07T14:38:07;97856.13;;;8.31;55.96
3260;BME280;22469;48.150;14.004;2022-12-07T14:40:34;97863.81;;;8.30;56.40
3260;BME280;22469;48.150;14.004;2022-12-07T14:43:05;97855.31;;;8.29;55.81
3260;BME280;22469;48.150;14.004;2022-12-07T14:45:36;97853.91;;;8.18;56.49
3260;BME280;22469;48.150;14.004;2022-12-07T14:48:03;97860.75;;;8.16;57.14
3260;BME280;22469;48.150;14.004;2022-12-07T14:50:52;97855.47;;;8.23;57.32
3260;BME280;22469;48.150;14.004;2022-12-07T14:53:46;97851.13;;;8.27;57.09
3260;BME280;22469;48.150;14.004;2022-12-07T14:56:24;97849.50;;;8.23;57.52
3260;BME280;22469;48.150;14.004;2022-12-07T14:58:51;97852.06;;;8.24;57.82
3260;BME280;22469;48.150;14.004;2022-12-07T15:01:18;97844.31;;;8.27;57.39
3260;BME280;22469;48.150;14.004;2022-12-07T15:03:46;97846.06;;;8.25;57.63
3260;BME280;22469;48.150;14.004;2022-12-07T15:06:14;97850.19;;;8.29;57.37
3260;BME280;22469;48.150;14.004;2022-12-07T15:08:43;97849.50;;;8.24;57.46
3260;BME280;22469;48.150;14.004;2022-12-07T15:11:15;97846.88;;;8.26;57.58
3260;BME280;22469;48.150;14.004;2022-12-07T15:13:43;97846.97;;;8.23;57.76
3260;BME280;22469;48.150;14.004;2022-12-07T15:16:30;97849.66;;;8.17;57.80
3260;BME280;22469;48.150;14.004;2022-12-07T15:19:22;97841.16;;;8.16;57.99
3260;BME280;22469;48.150;14.004;2022-12-07T15:21:56;97846.31;;;8.15;57.69
3260;BME280;22469;48.150;14.004;2022-12-07T15:24:25;97841.22;;;8.15;58.08
3260;BME280;22469;48.150;14.004;2022-12-07T15:26:52;97837.91;;;8.11;57.71
3260;BME280;22469;48.150;14.004;2022-12-07T15:29:19;97844.81;;;8.06;58.36
3260;BME280;22469;48.150;14.004;2022-12-07T15:31:50;97841.44;;;8.05;57.89
3260;BME280;22469;48.150;14.004;2022-12-07T15:34:24;97840.78;;;7.97;58.35
3260;BME280;22469;48.150;14.004;2022-12-07T15:36:52;97847.72;;;7.92;58.34
3260;BME280;22469;48.150;14.004;2022-12-07T15:39:19;97843.63;;;7.87;59.02
3260;BME280;22469;48.150;14.004;2022-12-07T15:41:46;97841.19;;;7.80;59.15
3260;BME280;22469;48.150;14.004;2022-12-07T15:44:13;97841.28;;;7.76;59.63
3260;BME280;22469;48.150;14.004;2022-12-07T15:47:00;97843.13;;;7.71;59.86
3260;BME280;22469;48.150;14.004;2022-12-07T15:49:27;97839.03;;;7.64;60.78
3260;BME280;22469;48.150;14.004;2022-12-07T15:51:54;97831.38;;;7.64;60.99